ESMS/MMX METAR and TAF weather

Enter ICAO airport designator
Station Type Date Time Source
ESMS METAR 2020/04/05 18:20 UTC NOAA

ESMS 051820Z 13010KT CAVOK 08/M01 Q1028


Station Type Date Time Source
ESMS Decoded METAR 2020/04/05 18:20 UTC NOAA

Malmo / Sturup, Sweden (ESMS) 55-33N 013-22E
Apr 05, 2020 - 02:20 PM EDT / 2020.04.05 1820 UTC
Wind: from the SE (130 degrees) at 12 MPH (10 KT):0
Visibility: greater than 7 mile(s):0
Temperature: 46 F (8 C)
Dew Point: 30 F (-1 C)
Relative Humidity: 52%
Pressure (altimeter): 30.36 in. Hg (1028 hPa)
ob: ESMS 051820Z 13010KT CAVOK 08/M01 Q1028
cycle: 18

Station Type Date Time Source
ESMS TAF 2020/04/05 18:06 UTC NOAA

TAF TAF ESMS 051701Z 0518/0618 13008KT 9999 FEW030

Example: see airport list